Time;durP1;ratioP1;P1;durP2;ratioP2;P2;SDS_P1;SDS_P2;PMS_P1;PMS_P2;Temp;Humidity;BMP_temperature;BMP_pressure;BME280_temperature;BME280_humidity;BME280_pressure;Samples;Min_cycle;Max_cycle;Signal;HPM_P1;HPM_P2
2022/12/15 00:40:15;;;;;;;57.13;27.65;;;;;;;-4.59;84.54;99033.75;1749221;82;25641;-66
2022/12/15 00:42:41;;;;;;;57.83;27.75;;;;;;;-4.60;84.50;99032.93;1781763;79;25424;-66
2022/12/15 00:45:08;;;;;;;59.38;27.98;;;;;;;-4.61;84.48;99032.67;1749099;82;25621;-71
2022/12/15 00:47:35;;;;;;;61.50;28.35;;;;;;;-4.60;84.47;99036.09;1781702;80;25468;-67
2022/12/15 01:20:20;;;;;;;54.27;25.75;;;;;;;-4.54;84.25;99008.23;1781778;80;25424;-66
2022/12/15 01:22:51;;;;;;;60.25;28.12;;;;;;;-4.54;84.25;99020.63;1749325;82;25451;-66
2022/12/15 01:25:20;;;;;;;61.95;27.60;;;;;;;-4.53;84.31;99016.94;1781940;80;25683;-66
2022/12/15 01:27:47;;;;;;;58.90;27.25;;;;;;;-4.51;84.32;99018.84;1740763;81;25634;-65
2022/12/15 01:30:18;;;;;;;57.05;28.30;;;;;;;-4.47;84.44;99008.59;1795547;79;27936;-66
2022/12/15 01:32:44;;;;;;;54.45;27.37;;;;;;;-4.47;84.34;98994.08;1795955;79;25519;-65
2022/12/15 01:35:10;;;;;;;58.55;29.25;;;;;;;-4.46;84.26;98999.62;1821774;78;25384;-66
2022/12/15 01:37:37;;;;;;;54.00;28.85;;;;;;;-4.48;84.15;98998.54;1821785;78;26112;-66
2022/12/15 01:42:51;;;;;;;53.55;26.42;;;;;;;-4.48;84.30;99007.77;1781771;79;27347;-65
2022/12/15 01:45:29;;;;;;;60.48;30.20;;;;;;;-4.45;84.41;99002.55;1803817;79;25118;-65
2022/12/15 01:48:04;;;;;;;63.13;28.15;;;;;;;-4.43;84.41;99006.53;1821716;78;25392;-65
2022/12/15 01:50:35;;;;;;;56.40;27.93;;;;;;;-4.42;84.35;99006.82;1800001;79;25822;-65
2022/12/15 01:53:02;;;;;;;57.90;28.25;;;;;;;-4.41;84.17;99008.43;1821690;78;25441;-65
2022/12/15 01:55:30;;;;;;;55.40;26.82;;;;;;;-4.40;84.25;99006.05;1821685;78;27594;-65
2022/12/15 01:58:01;;;;;;;54.63;28.40;;;;;;;-4.41;84.19;99006.29;1821580;78;25395;-65
2022/12/15 02:00:27;;;;;;;57.13;26.42;;;;;;;-4.39;84.26;99005.52;1821093;78;25440;-65
2022/12/15 02:02:55;;;;;;;54.18;27.15;;;;;;;-4.41;84.12;99005.79;1821623;78;25654;-65
2022/12/15 02:05:23;;;;;;;58.00;27.32;;;;;;;-4.41;84.19;99001.02;1821676;78;25382;-65
2022/12/15 02:07:49;;;;;;;60.85;29.15;;;;;;;-4.39;84.36;99002.88;1821626;78;27949;-65
2022/12/15 02:10:15;;;;;;;54.65;25.90;;;;;;;-4.38;84.34;98997.36;1821474;78;25943;-65
2022/12/15 02:13:20;;;;;;;55.60;27.90;;;;;;;-4.35;84.33;98999.52;1777690;79;25453;-65
2022/12/15 02:16:10;;;;;;;55.08;27.50;;;;;;;-4.34;84.40;99002.45;1821209;78;25725;-65
2022/12/15 02:18:57;;;;;;;58.00;28.32;;;;;;;-4.30;84.37;99015.18;1804159;78;25387;-65
2022/12/15 02:21:48;;;;;;;55.25;27.85;;;;;;;-4.28;84.47;99009.92;1821457;77;27390;-65
2022/12/15 02:24:54;;;;;;;61.58;28.23;;;;;;;-4.25;84.45;99016.57;1803525;79;25380;-64
2022/12/15 02:27:51;;;;;;;57.08;26.33;;;;;;;-4.23;84.50;99011.31;1804003;79;25392;-64
2022/12/15 02:30:26;;;;;;;57.10;28.30;;;;;;;-4.20;84.42;99010.83;1821433;78;25596;-65
2022/12/15 02:33:12;;;;;;;49.93;27.25;;;;;;;-4.18;84.36;99014.02;1817869;78;25406;-65
2022/12/15 02:35:53;;;;;;;54.77;26.97;;;;;;;-4.17;84.42;99003.75;1821424;78;27313;-65
2022/12/15 02:38:36;;;;;;;56.05;28.00;;;;;;;-4.15;84.42;99016.71;1821544;78;25342;-65
2022/12/15 02:41:05;;;;;;;57.80;27.95;;;;;;;-4.14;84.47;99003.77;1821603;78;25388;-65
2022/12/15 02:43:36;;;;;;;58.35;27.35;;;;;;;-4.13;84.43;99010.13;1804251;78;26116;-65
2022/12/15 02:46:13;;;;;;;54.20;27.10;;;;;;;-4.11;84.47;99015.70;1821402;78;25396;-65
2022/12/15 02:48:54;;;;;;;53.30;25.57;;;;;;;-4.11;84.52;99020.45;1813376;78;27326;-66
2022/12/15 02:51:28;;;;;;;53.10;26.48;;;;;;;-4.09;84.50;99017.04;1817654;77;25844;-66
2022/12/15 02:54:26;;;;;;;50.17;25.75;;;;;;;-4.05;84.48;99018.67;1795954;79;25424;-66
2022/12/15 02:57:18;;;;;;;55.67;25.23;;;;;;;-4.04;84.46;99022.92;1796084;79;25689;-66
2022/12/15 03:00:08;;;;;;;58.02;26.25;;;;;;;-4.04;84.45;99028.99;1793952;79;25442;-66
2022/12/15 03:02:39;;;;;;;50.55;25.12;;;;;;;-4.03;84.34;99031.14;1776566;80;27279;-66
2022/12/15 03:05:07;;;;;;;52.23;25.45;;;;;;;-4.03;84.43;99025.33;1788054;80;25365;-66
2022/12/15 03:07:33;;;;;;;52.30;25.17;;;;;;;-4.02;84.43;99024.79;1788138;80;25360;-65
2022/12/15 03:10:04;;;;;;;57.15;28.02;;;;;;;-4.00;84.36;99024.02;1788023;80;26273;-65
2022/12/15 03:12:30;;;;;;;55.88;28.10;;;;;;;-3.98;84.32;99024.59;1788182;79;25401;-65
2022/12/15 03:14:56;;;;;;;57.88;29.80;;;;;;;-3.97;84.24;99027.50;1788108;80;27396;-65
2022/12/15 03:17:23;;;;;;;60.63;28.47;;;;;;;-3.97;84.22;99028.82;1788032;80;25403;-65
2022/12/15 03:19:49;;;;;;;52.75;28.12;;;;;;;-3.97;84.12;99032.28;1788123;80;25409;-65
2022/12/15 03:22:15;;;;;;;53.73;27.90;;;;;;;-3.98;84.09;99029.35;1788055;80;25682;-65
2022/12/15 03:24:41;;;;;;;56.68;28.55;;;;;;;-3.97;84.06;99032.78;1788146;80;25447;-66
2022/12/15 03:27:08;;;;;;;58.83;28.25;;;;;;;-3.97;84.03;99032.28;1791564;79;27299;-66
2022/12/15 03:29:34;;;;;;;60.98;29.23;;;;;;;-3.96;84.16;99032.55;1801758;79;25553;-66
2022/12/15 03:32:01;;;;;;;60.17;28.15;;;;;;;-3.96;84.16;99032.55;1801844;79;25396;-66
2022/12/15 03:34:27;;;;;;;54.83;27.10;;;;;;;-3.96;84.20;99031.22;1801821;78;26229;-66
2022/12/15 03:36:53;;;;;;;61.28;27.37;;;;;;;-3.96;84.22;99032.55;1751886;81;25482;-66
2022/12/15 03:39:19;;;;;;;49.15;25.12;;;;;;;-3.95;84.30;99038.12;1780892;80;27481;-66
2022/12/15 03:41:45;;;;;;;50.80;24.98;;;;;;;-3.95;84.35;99036.80;1801723;79;25617;-66
2022/12/15 03:44:12;;;;;;;51.05;25.10;;;;;;;-3.94;84.33;99042.87;1751833;81;25440;-65
2022/12/15 03:46:38;;;;;;;50.35;25.55;;;;;;;-3.94;84.35;99047.63;1816100;79;25680;-65
2022/12/15 03:49:04;;;;;;;52.83;25.33;;;;;;;-3.93;84.27;99045.80;1816082;79;29475;-65
2022/12/15 03:51:30;;;;;;;48.87;25.75;;;;;;;-3.92;84.34;99055.30;1816056;79;27363;-65
2022/12/15 03:53:57;;;;;;;56.80;26.17;;;;;;;-3.93;84.29;99053.73;1815952;79;25540;-65
2022/12/15 03:56:24;;;;;;;48.42;24.40;;;;;;;-3.92;84.21;99051.34;1816086;78;25394;-65
2022/12/15 03:58:50;;;;;;;53.33;26.37;;;;;;;-3.94;84.25;99054.23;1816033;79;25656;-65
2022/12/15 04:01:32;;;;;;;53.80;28.20;;;;;;;-3.92;84.28;99055.30;1816086;79;25346;-65
2022/12/15 04:04:00;;;;;;;53.05;26.00;;;;;;;-3.92;84.29;99047.38;1816068;79;27335;-65
2022/12/15 04:06:27;;;;;;;50.10;25.05;;;;;;;-3.91;84.27;99050.31;1815979;79;25450;-65
2022/12/15 04:08:53;;;;;;;46.80;24.65;;;;;;;-3.90;84.40;99053.22;1816034;79;25385;-63
2022/12/15 04:11:20;;;;;;;53.10;25.40;;;;;;;-3.91;84.51;99045.56;1816035;78;25621;-65
2022/12/15 04:13:46;;;;;;;52.75;25.60;;;;;;;-3.90;84.52;99049.78;1816100;79;25435;-65
2022/12/15 04:16:13;;;;;;;58.85;29.92;;;;;;;-3.88;84.34;99052.47;1816045;79;27302;-65
2022/12/15 04:18:39;;;;;;;58.68;31.42;;;;;;;-3.87;84.21;99053.27;1815951;79;25443;-65
2022/12/15 04:21:05;;;;;;;61.77;32.20;;;;;;;-3.86;84.12;99059.62;1801792;79;25404;-65
2022/12/15 04:23:31;;;;;;;57.38;28.80;;;;;;;-3.86;84.11;99059.62;1801764;79;25621;-66
2022/12/15 05:32:17;;;;;;;55.70;27.65;;;;;;;-3.98;84.05;99130.27;1788035;80;25654;-65
2022/12/15 05:34:44;;;;;;;62.43;30.02;;;;;;;-3.99;84.03;99138.69;1788084;80;25466;-64
2022/12/15 05:37:10;;;;;;;60.60;28.35;;;;;;;-3.98;83.96;99143.48;1788045;79;28003;-65
2022/12/15 05:39:36;;;;;;;61.28;29.70;;;;;;;-4.00;84.01;99153.45;1787958;79;25401;-65
2022/12/15 05:42:03;;;;;;;62.70;30.17;;;;;;;-4.01;84.01;99151.34;1801761;79;25530;-64
2022/12/15 05:44:29;;;;;;;60.40;30.95;;;;;;;-4.01;84.07;99150.55;1801756;79;25609;-65
2022/12/15 05:46:55;;;;;;;63.20;31.85;;;;;;;-4.02;83.92;99156.88;1801779;79;25451;-65
2022/12/15 05:49:24;;;;;;;67.75;30.45;;;;;;;-4.04;84.03;99171.63;1801775;79;27360;-65
2022/12/15 05:51:51;;;;;;;65.22;32.08;;;;;;;-4.04;84.23;99168.99;1782131;79;25607;-66
2022/12/15 05:54:18;;;;;;;62.90;30.90;;;;;;;-4.03;84.35;99167.17;1801818;78;25413;-67
2022/12/15 05:56:45;;;;;;;75.97;34.15;;;;;;;-4.04;84.42;99166.35;1801715;79;25857;-67
2022/12/15 05:59:12;;;;;;;74.22;36.13;;;;;;;-4.01;84.51;99180.94;1801813;79;25412;-67
2022/12/15 06:01:38;;;;;;;72.20;34.18;;;;;;;-4.01;84.55;99187.01;1801790;79;27373;-67
2022/12/15 06:04:06;;;;;;;79.15;35.52;;;;;;;-3.99;84.48;99189.41;1801704;79;25541;-66
2022/12/15 06:06:32;;;;;;;76.80;35.30;;;;;;;-4.00;84.51;99192.59;1801900;79;25435;-67
2022/12/15 06:08:58;;;;;;;72.97;36.70;;;;;;;-3.99;84.52;99204.73;1801910;79;26375;-67
2022/12/15 06:11:25;;;;;;;81.95;37.05;;;;;;;-4.01;84.51;99208.67;1801924;79;25468;-67
2022/12/15 06:13:52;;;;;;;72.15;34.48;;;;;;;-4.00;84.54;99216.86;1801907;79;27890;-66
2022/12/15 06:16:20;;;;;;;81.42;37.93;;;;;;;-4.02;84.54;99213.66;1801861;79;25411;-67
2022/12/15 06:18:54;;;;;;;74.80;34.50;;;;;;;-4.03;84.77;99230.57;1802209;78;25404;-67
2022/12/15 06:21:25;;;;;;;66.70;32.78;;;;;;;-4.03;84.77;99230.57;1801985;78;25359;-66
2022/12/15 06:23:54;;;;;;;70.20;32.15;;;;;;;-4.02;84.75;99236.94;1801949;79;25457;-70
2022/12/15 06:26:26;;;;;;;67.62;33.40;;;;;;;-4.01;84.86;99237.73;1801937;78;27304;-67
2022/12/15 06:28:57;;;;;;;70.97;33.55;;;;;;;-4.00;84.88;99248.56;1801751;78;25538;-66
2022/12/15 06:31:24;;;;;;;66.82;33.30;;;;;;;-3.99;84.86;99244.89;1801969;78;25364;-68
2022/12/15 06:33:52;;;;;;;58.30;30.57;;;;;;;-4.00;84.89;99248.06;1801815;79;25831;-68
2022/12/15 06:36:19;;;;;;;66.67;31.40;;;;;;;-4.00;84.73;99252.02;1801426;79;25441;-69
2022/12/15 06:38:46;;;;;;;63.10;29.40;;;;;;;-4.01;84.72;99245.66;1781636;79;28066;-70
2022/12/15 06:41:16;;;;;;;63.25;29.87;;;;;;;-4.01;84.71;99250.94;1801758;79;25557;-70
2022/12/15 06:43:42;;;;;;;66.72;32.17;;;;;;;-4.04;84.64;99246.92;1801988;79;25431;-70
2022/12/15 06:46:09;;;;;;;64.37;30.32;;;;;;;-4.03;84.85;99256.45;1801849;79;25679;-70
2022/12/15 06:48:35;;;;;;;60.70;30.05;;;;;;;-4.04;84.95;99263.30;1801953;78;25410;-69
2022/12/15 06:51:05;;;;;;;58.40;29.70;;;;;;;-4.04;85.00;99271.22;1801889;79;28100;-70
2022/12/15 06:53:33;;;;;;;;;;;;;;;-4.05;85.05;99278.35;1804467;79;25409;-69
2022/12/15 06:56:03;;;;;;;58.63;29.75;;;;;;;-4.05;85.10;99279.67;1801910;79;25467;-70
2022/12/15 06:58:29;;;;;;;61.75;29.77;;;;;;;-4.07;85.25;99283.08;1801837;79;26195;-69
2022/12/15 07:00:56;;;;;;;61.13;28.85;;;;;;;-4.06;85.40;99287.30;1801935;79;25438;-69
2022/12/15 07:03:23;;;;;;;66.67;31.45;;;;;;;-4.04;85.49;99287.07;1801852;79;28154;-68
2022/12/15 07:06:03;;;;;;;65.32;30.57;;;;;;;-4.01;85.64;99291.89;1801822;78;25645;-71
2022/12/15 07:08:29;;;;;;;66.90;30.27;;;;;;;-3.99;85.77;99295.88;1787828;79;25441;-71
2022/12/15 07:10:56;;;;;;;69.17;31.40;;;;;;;-3.94;85.93;99296.50;1788133;79;25616;-70
2022/12/15 07:13:22;;;;;;;71.67;33.98;;;;;;;-3.88;86.04;99303.98;1788171;79;25472;-70
2022/12/15 07:15:49;;;;;;;71.02;33.25;;;;;;;-3.86;86.09;99304.57;1788126;80;27391;-70
2022/12/15 07:18:16;;;;;;;67.53;32.55;;;;;;;-3.82;85.94;99313.61;1801775;79;25392;-70
2022/12/15 07:20:44;;;;;;;76.35;34.55;;;;;;;-3.82;85.98;99316.25;1801880;79;25469;-69
2022/12/15 07:23:10;;;;;;;73.67;32.83;;;;;;;-3.78;85.96;99322.66;1801802;79;26151;-69
2022/12/15 07:25:38;;;;;;;64.85;32.93;;;;;;;-3.76;85.89;99327.20;1801690;79;25469;-70
2022/12/15 07:28:05;;;;;;;65.20;32.20;;;;;;;-3.74;85.92;99338.86;1799869;79;27299;-70
2022/12/15 07:30:32;;;;;;;68.52;31.55;;;;;;;-3.72;85.90;99345.50;1781688;80;25451;-69
2022/12/15 07:32:58;;;;;;;66.57;32.50;;;;;;;-3.69;85.95;99342.91;1749136;82;25484;-70
2022/12/15 07:35:24;;;;;;;65.83;32.20;;;;;;;-3.67;86.01;99346.91;1781702;80;25603;-70
2022/12/15 07:37:50;;;;;;;66.07;31.85;;;;;;;-3.62;86.12;99352.81;1749196;82;25409;-69
2022/12/15 07:40:17;;;;;;;67.17;32.33;;;;;;;-3.59;86.00;99361.59;1750795;82;27968;-70
2022/12/15 07:42:43;;;;;;;65.60;33.38;;;;;;;-3.57;85.99;99364.80;1781615;80;25552;-66
2022/12/15 07:45:10;;;;;;;74.60;35.95;;;;;;;-3.57;85.91;99373.52;1781763;80;25414;-67
2022/12/15 07:47:37;;;;;;;65.22;34.35;;;;;;;-3.57;85.85;99378.80;1781139;80;26148;-67
2022/12/15 07:50:04;;;;;;;72.53;34.15;;;;;;;-3.57;85.72;99388.05;1748393;82;25541;-67
2022/12/15 07:52:30;;;;;;;77.10;36.35;;;;;;;-3.57;85.72;99389.91;1780924;80;27478;-68
2022/12/15 07:54:56;;;;;;;73.07;35.15;;;;;;;-3.59;85.57;99383.53;1748278;82;25606;-68
2022/12/15 07:57:22;;;;;;;75.95;37.05;;;;;;;-3.60;85.45;99395.14;1780880;80;25207;-67
2022/12/15 07:59:50;;;;;;;69.75;35.92;;;;;;;-3.62;85.55;99397.22;1749934;82;26196;-68
2022/12/15 08:02:16;;;;;;;78.40;36.23;;;;;;;-3.62;85.42;99408.33;1781139;80;25531;-67
2022/12/15 08:04:42;;;;;;;75.87;36.93;;;;;;;-3.65;85.42;99404.83;1781726;80;27347;-68
2022/12/15 08:07:10;;;;;;;71.93;35.70;;;;;;;-3.65;85.47;99409.59;1749076;82;26375;-66
2022/12/15 08:09:36;;;;;;;73.12;35.50;;;;;;;-3.65;85.53;99416.19;1781716;80;25427;-65
2022/12/15 08:12:02;;;;;;;73.75;35.35;;;;;;;-3.62;85.67;99416.25;1750731;82;25613;-68
2022/12/15 08:14:30;;;;;;;72.50;34.25;;;;;;;-3.59;85.72;99421.86;1781753;80;25424;-67
2022/12/15 08:16:57;;;;;;;74.12;36.38;;;;;;;-3.55;85.70;99421.40;1781694;80;26897;-67
2022/12/15 08:19:23;;;;;;;72.80;35.58;;;;;;;-3.55;85.57;99413.47;1781612;80;25413;-68
2022/12/15 08:21:49;;;;;;;75.28;35.65;;;;;;;-3.57;85.46;99421.63;1781704;80;25416;-69
2022/12/15 08:24:16;;;;;;;79.65;38.53;;;;;;;-3.55;85.50;99426.69;1781665;80;25575;-68
2022/12/15 08:26:43;;;;;;;74.85;35.48;;;;;;;-3.52;85.66;99428.33;1781746;80;25484;-68
2022/12/15 08:29:12;;;;;;;70.90;35.40;;;;;;;-3.50;85.58;99428.09;1779383;80;27456;-66
2022/12/15 08:31:39;;;;;;;71.50;34.78;;;;;;;-3.48;85.60;99426.02;1776306;80;25453;-69
2022/12/15 08:34:06;;;;;;;66.57;33.30;;;;;;;-3.46;85.43;99427.89;1776205;80;25404;-68
2022/12/15 08:36:32;;;;;;;67.82;32.98;;;;;;;-3.44;85.39;99441.67;1776162;80;25616;-68
2022/12/15 08:39:00;;;;;;;64.12;31.97;;;;;;;-3.46;85.14;99441.12;1776193;80;25465;-67
2022/12/15 08:41:29;;;;;;;59.85;28.23;;;;;;;-3.44;85.14;99454.39;1776181;80;27340;-68
2022/12/15 08:43:57;;;;;;;56.13;27.73;;;;;;;-3.45;84.81;99458.59;1776276;80;25539;-67
2022/12/15 08:46:30;;;;;;;56.60;27.95;;;;;;;-3.47;84.78;99458.03;1776181;80;25475;-67
2022/12/15 08:48:57;;;;;;;57.70;26.77;;;;;;;-3.45;84.79;99473.94;1776179;80;26128;-67
2022/12/15 08:51:26;;;;;;;54.58;27.10;;;;;;;-3.43;84.83;99471.05;1776239;80;25417;-67
2022/12/15 08:53:54;;;;;;;56.77;28.32;;;;;;;-3.39;85.26;99474.32;1776222;80;27385;-67
2022/12/15 08:56:23;;;;;;;54.20;26.97;;;;;;;-3.28;85.58;99479.27;1776133;80;25405;-67
2022/12/15 08:58:56;;;;;;;52.50;25.10;;;;;;;-3.24;85.48;99470.33;1776201;80;25478;-67
2022/12/15 09:01:24;;;;;;;48.63;25.02;;;;;;;-3.17;85.20;99478.91;1753935;80;25378;-69
2022/12/15 09:03:52;;;;;;;47.33;23.95;;;;;;;-3.15;84.99;99481.33;1776173;80;25404;-69
2022/12/15 09:06:26;;;;;;;46.37;23.05;;;;;;;-3.10;84.81;99482.73;1776176;80;27341;-68
2022/12/15 09:09:03;;;;;;;47.60;23.85;;;;;;;-3.09;84.32;99482.50;1775482;80;25286;-68
2022/12/15 09:11:30;;;;;;;45.15;23.18;;;;;;;-3.06;84.44;99487.85;1776219;80;25434;-67
2022/12/15 09:13:57;;;;;;;47.73;24.15;;;;;;;-3.04;84.05;99485.77;1776148;80;25616;-67
2022/12/15 09:16:24;;;;;;;50.50;25.12;;;;;;;-3.02;84.30;99488.97;1776206;80;25432;-67
2022/12/15 09:18:54;;;;;;;51.37;27.07;;;;;;;-2.96;84.46;99488.02;1776190;80;27959;-68
2022/12/15 09:21:24;;;;;;;51.92;26.17;;;;;;;-2.92;84.63;99482.52;1776106;80;25391;-67
2022/12/15 09:23:53;;;;;;;53.92;28.23;;;;;;;-2.88;84.36;99487.63;1776188;80;25382;-68
2022/12/15 09:26:22;;;;;;;40.15;21.02;;;;;;;-2.85;84.19;99491.09;1776269;80;26225;-68
2022/12/15 09:28:49;;;;;;;56.48;27.00;;;;;;;-2.83;83.89;99497.48;1775670;80;25413;-68
2022/12/15 09:31:20;;;;;;;44.83;24.23;;;;;;;-2.82;83.68;99511.80;1772072;81;27514;-66
2022/12/15 09:33:47;;;;;;;44.23;23.70;;;;;;;-2.83;83.49;99511.53;1771964;81;25548;-67
2022/12/15 09:36:14;;;;;;;52.60;25.48;;;;;;;-2.84;83.41;99515.74;1749220;81;25646;-67
2022/12/15 09:38:42;;;;;;;52.30;24.72;;;;;;;-2.84;83.32;99525.80;1771157;80;26501;-66
2022/12/15 09:41:22;;;;;;;50.00;24.18;;;;;;;-2.85;83.14;99534.77;1771726;81;25565;-66
2022/12/15 09:44:06;;;;;;;50.85;26.45;;;;;;;-2.80;83.54;99526.65;1772261;81;27319;-67
2022/12/15 09:47:06;;;;;;;45.52;23.77;;;;;;;-2.75;83.79;99529.38;1762218;80;25467;-66
2022/12/15 09:50:06;;;;;;;44.05;21.82;;;;;;;-2.74;83.33;99538.41;1772252;81;25378;-67
2022/12/15 09:52:52;;;;;;;43.35;21.68;;;;;;;-2.73;82.98;99536.56;1772213;81;25590;-67
2022/12/15 09:55:22;;;;;;;42.43;21.60;;;;;;;-2.77;82.79;99530.94;1772283;80;25446;-67
2022/12/15 09:58:03;;;;;;;44.18;22.37;;;;;;;-2.76;82.76;99530.41;1772281;81;27179;-67
2022/12/15 10:00:57;;;;;;;44.65;22.27;;;;;;;-2.77;82.82;99530.15;1772182;81;25525;-68
2022/12/15 10:04:00;;;;;;;47.93;23.12;;;;;;;-2.80;82.58;99527.98;1769783;81;25461;-67
2022/12/15 10:06:56;;;;;;;51.65;23.27;;;;;;;-2.80;82.72;99547.30;1772354;81;25400;-68
2022/12/15 10:09:27;;;;;;;50.12;24.23;;;;;;;-2.79;82.88;99551.56;1772287;81;25449;-69
2022/12/15 10:12:07;;;;;;;54.15;24.57;;;;;;;-2.79;82.56;99552.89;1750596;81;27328;-68
2022/12/15 10:14:50;;;;;;;46.40;24.25;;;;;;;-2.84;82.01;99562.86;1772160;81;25465;-68
2022/12/15 10:17:33;;;;;;;53.52;23.75;;;;;;;-2.91;82.01;99553.45;1767289;80;25416;-69
2022/12/15 10:20:25;;;;;;;53.50;25.40;;;;;;;-2.95;82.08;99557.63;1772226;81;25686;-69
2022/12/15 10:22:54;;;;;;;56.28;26.45;;;;;;;-2.95;82.37;99561.59;1772230;81;25402;-68
2022/12/15 10:25:30;;;;;;;62.13;28.47;;;;;;;-2.98;82.46;99562.85;1772247;81;27333;-68
2022/12/15 10:28:11;;;;;;;59.42;28.35;;;;;;;-2.97;82.62;99571.09;1772161;81;25439;-69
2022/12/15 10:31:01;;;;;;;49.03;26.50;;;;;;;-2.94;82.89;99570.62;1772126;80;25388;-70
2022/12/15 10:33:38;;;;;;;52.35;27.40;;;;;;;-2.89;82.97;99572.03;1772195;81;26329;-69
2022/12/15 10:36:10;;;;;;;55.00;27.93;;;;;;;-2.83;83.05;99575.06;1772408;81;25382;-69
2022/12/15 10:38:46;;;;;;;62.23;29.02;;;;;;;-2.83;82.71;99573.73;1771737;81;28004;-69
2022/12/15 10:41:19;;;;;;;62.95;30.80;;;;;;;-2.88;82.00;99575.47;1771954;81;25678;-69
2022/12/15 10:43:49;;;;;;;61.33;29.90;;;;;;;-2.94;82.00;99580.41;1770899;81;25429;-68
2022/12/15 10:46:21;;;;;;;;;;;;;;;-2.98;82.15;99585.34;1774795;81;25687;-68
2022/12/15 10:48:54;;;;;;;69.17;31.02;;;;;;;-2.97;82.28;99592.78;1741629;82;25436;-68
2022/12/15 10:51:36;;;;;;;69.55;32.45;;;;;;;-3.01;82.41;99594.58;1801774;79;27908;-69
2022/12/15 10:54:14;;;;;;;66.28;31.17;;;;;;;-2.99;82.54;99598.84;1801826;79;25398;-68
2022/12/15 10:56:58;;;;;;;74.05;32.90;;;;;;;-2.95;82.92;99595.47;1801944;79;25381;-68
2022/12/15 10:59:35;;;;;;;68.33;31.23;;;;;;;-2.93;82.55;99596.55;1801853;79;25708;-69
2022/12/15 11:02:30;;;;;;;69.25;32.38;;;;;;;-2.92;82.50;99592.88;1788190;80;25460;-69
2022/12/15 11:05:00;;;;;;;61.63;30.15;;;;;;;-2.91;82.53;99601.08;1787885;79;27472;-68
2022/12/15 11:07:37;;;;;;;61.05;30.05;;;;;;;-2.93;82.41;99603.17;1788083;80;25432;-68
2022/12/15 11:12:50;;;;;;;71.33;32.35;;;;;;;-2.91;82.35;99606.38;1774872;80;25453;-68
2022/12/15 11:13:14;;;;;;;69.50;30.97;;;;;;;-2.90;82.28;99611.44;1785141;80;25803;-68
2022/12/15 11:15:46;;;;;;;59.98;28.73;;;;;;;-2.87;82.66;99612.30;1788205;79;25437;-68
2022/12/15 11:18:47;;;;;;;57.08;27.15;;;;;;;-2.89;81.82;99604.32;1788124;79;26811;-68
2022/12/15 11:21:28;;;;;;;56.80;26.75;;;;;;;-2.94;81.75;99606.34;1754792;81;25545;-67
2022/12/15 11:24:24;;;;;;;58.55;28.87;;;;;;;-2.91;81.94;99612.99;1755180;80;25539;-67
2022/12/15 11:27:20;;;;;;;57.98;24.98;;;;;;;-2.96;81.66;99614.22;1754790;81;25681;-66
2022/12/15 11:30:15;;;;;;;59.23;26.85;;;;;;;-3.02;81.21;99612.80;1758463;81;25542;-68
2022/12/15 11:32:52;;;;;;;61.92;27.75;;;;;;;-3.02;81.67;99622.06;1769273;81;27380;-69
2022/12/15 11:35:32;;;;;;;62.27;28.07;;;;;;;-3.00;81.52;99620.51;1770586;81;25494;-68
2022/12/15 11:38:22;;;;;;;57.05;27.87;;;;;;;-2.95;82.02;99629.07;1769805;81;25517;-68
2022/12/15 11:40:50;;;;;;;60.33;29.05;;;;;;;-2.93;81.61;99637.58;1770487;81;25437;-68
2022/12/15 11:43:31;;;;;;;69.77;31.20;;;;;;;-2.94;81.42;99642.08;1770831;81;25669;-69
2022/12/15 11:46:22;;;;;;;65.15;31.87;;;;;;;-2.99;80.92;99642.50;1770479;81;27407;-68
2022/12/15 11:49:25;;;;;;;65.55;29.98;;;;;;;-3.03;80.82;99642.14;1770571;81;25477;-68
2022/12/15 11:52:19;;;;;;;71.28;31.87;;;;;;;-3.02;81.21;99647.73;1770628;81;25457;-68
2022/12/15 11:55:15;;;;;;;68.40;32.03;;;;;;;-2.99;81.14;99655.73;1770619;81;25805;-68
2022/12/15 11:57:49;;;;;;;71.12;33.20;;;;;;;-3.04;80.81;99665.16;1804501;79;25472;-68
2022/12/15 12:00:19;;;;;;;75.22;33.38;;;;;;;-3.08;80.81;99664.03;1813702;78;28011;-68
2022/12/15 12:02:58;;;;;;;;;;;;;;;-3.09;80.94;99662.42;1817561;79;25580;-68
2022/12/15 12:05:56;;;;;;;72.37;33.57;;;;;;;-3.08;80.88;99681.23;1815244;79;25416;-68
2022/12/15 12:08:34;;;;;;;69.35;31.25;;;;;;;-3.17;80.43;99680.50;1813497;78;25657;-68
2022/12/15 12:11:19;;;;;;;73.67;30.95;;;;;;;-3.24;80.67;99681.42;1810690;78;25494;-67
2022/12/15 12:14:18;;;;;;;63.02;29.48;;;;;;;-3.31;80.48;99682.06;1814946;79;27320;-68
2022/12/15 12:17:08;;;;;;;63.13;28.70;;;;;;;-3.43;80.39;99688.69;1779297;80;25734;-68
2022/12/15 12:19:41;;;;;;;71.33;29.42;;;;;;;-3.51;80.58;99693.00;1768586;80;25398;-66
2022/12/15 12:22:28;;;;;;;61.80;27.30;;;;;;;-3.57;80.83;99701.34;1744627;80;25614;-67
2022/12/15 12:25:05;;;;;;;68.12;29.10;;;;;;;-3.60;80.82;99705.77;1826482;78;25415;-67
2022/12/15 12:27:59;;;;;;;63.85;27.30;;;;;;;-3.61;81.10;99707.31;1826466;78;27394;-68
2022/12/15 12:30:31;;;;;;;66.37;28.17;;;;;;;-3.65;80.97;99708.30;1822866;78;25534;-68
2022/12/15 12:33:09;;;;;;;60.88;28.85;;;;;;;-3.69;81.07;99709.80;1817820;78;25416;-67
2022/12/15 12:35:41;;;;;;;75.52;31.52;;;;;;;-3.69;81.37;99713.77;1817643;78;25609;-68
2022/12/15 12:38:11;;;;;;;73.00;31.85;;;;;;;-3.70;81.22;99721.92;1817832;78;25393;-68
2022/12/15 12:40:54;;;;;;;77.62;32.75;;;;;;;-3.74;81.16;99718.93;1817892;79;27284;-68
2022/12/15 12:43:43;;;;;;;78.97;33.60;;;;;;;-3.80;81.23;99729.91;1792576;78;25468;-68
2022/12/15 12:46:21;;;;;;;79.80;32.37;;;;;;;-3.84;81.36;99737.19;1818010;79;25443;-68
2022/12/15 12:49:21;;;;;;;76.87;32.40;;;;;;;-3.94;81.42;99731.93;1817769;78;25587;-68
2022/12/15 12:51:54;;;;;;;78.45;33.92;;;;;;;-3.93;81.74;99742.00;1817797;79;25365;-68
2022/12/15 12:54:39;;;;;;;78.75;32.80;;;;;;;-3.95;81.91;99744.05;1817817;78;27299;-68
2022/12/15 12:57:17;;;;;;;80.92;33.08;;;;;;;-3.95;82.08;99746.69;1817762;79;25387;-69
2022/12/15 12:59:51;;;;;;;82.37;33.55;;;;;;;-3.95;82.25;99748.01;1817846;79;25413;-68
2022/12/15 13:02:27;;;;;;;78.55;32.73;;;;;;;-3.93;82.36;99753.89;1817760;79;25574;-68
2022/12/15 13:05:22;;;;;;;73.97;31.77;;;;;;;-3.92;82.19;99754.69;1817842;78;25415;-69
2022/12/15 13:08:09;;;;;;;79.97;33.58;;;;;;;-3.91;82.24;99762.92;1817838;79;28061;-68
2022/12/15 13:10:42;;;;;;;73.30;32.70;;;;;;;-3.91;82.33;99765.56;1817746;79;25447;-69
2022/12/15 13:13:30;;;;;;;77.42;30.30;;;;;;;-3.89;82.42;99770.89;1817822;79;25377;-68
2022/12/15 13:16:23;;;;;;;70.65;31.30;;;;;;;-3.89;82.32;99774.06;1817870;79;25665;-68
2022/12/15 13:19:05;;;;;;;79.35;31.82;;;;;;;-3.89;82.43;99771.42;1817911;79;25403;-68
2022/12/15 13:21:47;;;;;;;75.25;32.08;;;;;;;-3.89;82.46;99766.13;1817764;79;27445;-69
2022/12/15 13:24:34;;;;;;;77.25;31.90;;;;;;;-3.87;82.48;99778.08;1817628;79;25622;-69
2022/12/15 13:27:12;;;;;;;81.92;33.35;;;;;;;-3.85;82.47;99777.84;1817719;79;25462;-70
2022/12/15 13:30:00;;;;;;;83.45;32.88;;;;;;;-3.86;82.40;99774.41;1817745;78;26250;-70
2022/12/15 13:32:34;;;;;;;75.47;33.00;;;;;;;-3.88;82.35;99776.48;1817827;78;25387;-69
2022/12/15 13:35:18;;;;;;;84.47;33.60;;;;;;;-3.90;82.29;99781.69;1770336;81;27306;-66
2022/12/15 13:37:54;;;;;;;79.72;34.30;;;;;;;-3.89;82.62;99785.95;1770359;81;25547;-67
2022/12/15 13:40:35;;;;;;;81.12;32.58;;;;;;;-3.85;82.77;99789.74;1770345;81;25527;-65
2022/12/15 13:43:08;;;;;;;82.20;35.92;;;;;;;-3.85;82.76;99799.79;1770497;81;25678;-67
2022/12/15 13:45:52;;;;;;;86.32;33.50;;;;;;;-3.86;82.70;99803.48;1770576;81;25491;-66
2022/12/15 13:48:46;;;;;;;84.15;35.10;;;;;;;-3.85;82.70;99810.88;1770149;81;27416;-66
2022/12/15 13:51:27;;;;;;;82.62;35.20;;;;;;;-3.86;82.69;99816.70;1770488;81;25469;-65
2022/12/15 13:54:04;;;;;;;88.27;35.92;;;;;;;-3.86;82.81;99813.25;1770539;81;25497;-65
2022/12/15 13:56:51;;;;;;;89.70;35.25;;;;;;;-3.86;82.89;99814.05;1738235;81;25503;-66
2022/12/15 13:59:25;;;;;;;86.28;35.52;;;;;;;-3.83;82.90;99825.50;1770535;81;25523;-66
2022/12/15 14:01:53;;;;;;;85.95;35.25;;;;;;;-3.82;82.78;99825.77;1730641;82;27339;-66
2022/12/15 14:04:21;;;;;;;81.95;34.05;;;;;;;-3.80;82.83;99830.84;1730648;82;25417;-65
2022/12/15 14:06:58;;;;;;;79.42;33.40;;;;;;;-3.79;82.81;99843.03;1730708;82;25531;-65